createdAt,value
2023-04-04T00:01:11.117Z,37.86
2023-04-04T00:03:43.264Z,37.50
2023-04-04T00:06:11.673Z,37.47
2023-04-04T00:08:39.938Z,37.72
2023-04-04T00:11:08.439Z,37.37
2023-04-04T00:13:38.869Z,37.24
2023-04-04T00:16:07.018Z,37.06
2023-04-04T00:18:38.987Z,37.13
2023-04-04T00:21:07.667Z,38.02
2023-04-04T00:23:37.327Z,38.27
2023-04-04T00:26:05.553Z,38.25
2023-04-04T00:28:33.604Z,38.38
2023-04-04T00:31:02.394Z,38.23
2023-04-04T00:33:31.405Z,38.50
2023-04-04T00:35:59.877Z,38.47
2023-04-04T00:38:29.696Z,38.09
2023-04-04T00:40:57.803Z,38.41
2023-04-04T00:43:25.958Z,38.38
2023-04-04T00:45:54.055Z,38.27
2023-04-04T00:48:24.425Z,38.37
2023-04-04T00:50:52.759Z,38.17
2023-04-04T00:53:20.794Z,38.53
2023-04-04T00:55:49.171Z,38.35
2023-04-04T00:58:17.435Z,38.26
2023-04-04T01:00:45.470Z,37.88
2023-04-04T01:03:25.276Z,37.87
2023-04-04T01:05:55.286Z,37.91
2023-04-04T01:08:25.109Z,38.02
2023-04-04T01:10:56.330Z,37.69
2023-04-04T01:13:24.516Z,37.68
2023-04-04T01:15:53.196Z,37.32
2023-04-04T01:18:22.225Z,37.18
2023-04-04T01:24:03.253Z,44.96
2023-04-04T01:26:42.029Z,41.37
2023-04-04T01:29:10.499Z,41.18
2023-04-04T01:31:41.856Z,41.37
2023-04-04T01:34:12.277Z,40.75
2023-04-04T01:36:58.138Z,40.01
2023-04-04T01:39:35.947Z,39.79
2023-04-04T01:42:05.362Z,39.69
2023-04-04T01:44:34.541Z,39.71
2023-04-04T01:47:11.865Z,39.81
2023-04-04T01:49:40.930Z,40.20
2023-04-04T01:52:09.734Z,40.11
2023-04-04T01:54:39.190Z,39.83
2023-04-04T01:57:07.517Z,39.74
2023-04-04T01:59:36.674Z,39.86
2023-04-04T02:02:04.995Z,39.68
2023-04-04T02:04:33.287Z,39.87
2023-04-04T02:07:05.217Z,39.83
2023-04-04T02:09:34.516Z,39.90
2023-04-04T02:12:03.220Z,40.04
2023-04-04T02:14:35.809Z,39.86
2023-04-04T02:17:04.061Z,39.54
2023-04-04T02:19:32.237Z,39.11
2023-04-04T02:22:01.126Z,39.55
2023-04-04T02:24:30.015Z,39.47
2023-04-04T02:26:58.088Z,39.09
2023-04-04T02:29:27.863Z,39.97
2023-04-04T02:31:56.282Z,40.48
2023-04-04T02:34:24.460Z,40.12
2023-04-04T02:36:53.659Z,40.04
2023-04-04T02:39:22.401Z,39.53
2023-04-04T02:41:52.721Z,39.45
2023-04-04T02:44:20.925Z,39.48
2023-04-04T02:46:55.930Z,39.52
2023-04-04T02:49:29.784Z,39.24
2023-04-04T02:51:58.150Z,39.44
2023-04-04T02:54:27.250Z,39.19
2023-04-04T02:56:55.740Z,39.23
2023-04-04T02:59:24.916Z,39.80
2023-04-04T03:01:53.486Z,39.74
2023-04-04T03:04:21.995Z,39.27
2023-04-04T03:06:50.254Z,39.14
2023-04-04T03:09:19.354Z,39.12
2023-04-04T03:11:47.454Z,39.25
2023-04-04T03:14:23.691Z,39.04
2023-04-04T03:16:53.672Z,38.93
2023-04-04T03:19:21.896Z,39.04
2023-04-04T03:21:52.317Z,38.95
2023-04-04T03:24:20.526Z,38.81
2023-04-04T03:26:48.695Z,38.56
2023-04-04T03:29:17.451Z,38.36
2023-04-04T03:31:46.796Z,38.63
2023-04-04T03:34:15.842Z,39.31
2023-04-04T03:36:46.704Z,39.43
2023-04-04T03:39:14.959Z,39.09
2023-04-04T03:41:43.106Z,39.08
2023-04-04T03:44:11.119Z,39.11
2023-04-04T03:46:40.732Z,38.74
2023-04-04T03:49:09.586Z,39.11
2023-04-04T03:51:41.977Z,39.07
2023-04-04T03:54:10.256Z,39.54
2023-04-04T03:56:38.891Z,39.10
2023-04-04T03:59:07.273Z,38.73
2023-04-04T04:01:36.026Z,39.06
2023-04-04T04:04:06.761Z,39.18
2023-04-04T04:06:36.090Z,38.85
2023-04-04T04:09:04.233Z,38.77
2023-04-04T04:11:34.003Z,38.72
2023-04-04T04:14:02.080Z,38.35
2023-04-04T04:16:30.253Z,38.41
2023-04-04T04:18:59.274Z,38.91
2023-04-04T04:21:37.804Z,39.12
2023-04-04T04:24:08.586Z,39.54
2023-04-04T04:26:37.330Z,39.57
2023-04-04T04:29:07.541Z,39.26
2023-04-04T04:31:36.334Z,38.40
2023-04-04T04:34:08.776Z,38.21
2023-04-04T04:36:39.820Z,38.75
2023-04-04T04:39:36.571Z,38.73
2023-04-04T04:42:21.516Z,38.62
2023-04-04T04:44:53.855Z,38.41
2023-04-04T04:47:22.940Z,38.74
2023-04-04T04:49:54.870Z,38.81
2023-04-04T04:52:32.725Z,38.58
2023-04-04T04:55:02.169Z,38.60
2023-04-04T04:57:31.278Z,38.49
2023-04-04T05:00:01.466Z,38.23
2023-04-04T05:02:34.447Z,38.44
2023-04-04T05:05:03.282Z,38.49
2023-04-04T05:07:33.753Z,38.15
2023-04-04T05:10:07.259Z,38.34
2023-04-04T05:12:37.307Z,38.88
2023-04-04T05:15:06.807Z,38.47
2023-04-04T05:17:36.284Z,38.21
2023-04-04T05:20:08.777Z,38.39
2023-04-04T05:22:42.260Z,38.85
2023-04-04T05:25:13.942Z,39.17
2023-04-04T05:27:48.848Z,39.06
2023-04-04T05:30:18.660Z,38.74
2023-04-04T05:32:58.612Z,38.50
2023-04-04T05:35:29.586Z,38.60
2023-04-04T05:37:58.574Z,38.11
2023-04-04T05:40:26.907Z,37.96
2023-04-04T05:43:04.827Z,37.70
2023-04-04T05:45:41.794Z,37.69
2023-04-04T05:48:10.837Z,37.95
2023-04-04T05:50:47.495Z,37.73
2023-04-04T05:53:17.283Z,37.84
2023-04-04T05:55:47.438Z,37.79
2023-04-04T05:58:19.608Z,38.20
2023-04-04T06:00:52.555Z,38.22
2023-04-04T06:03:22.327Z,38.12
2023-04-04T06:05:55.680Z,38.02
2023-04-04T06:08:26.009Z,38.19
2023-04-04T06:10:56.117Z,37.99
2023-04-04T06:13:24.910Z,37.93
2023-04-04T06:15:57.203Z,37.59
2023-04-04T06:18:25.510Z,37.61
2023-04-04T06:20:56.896Z,37.50
2023-04-04T06:23:26.177Z,38.00
2023-04-04T06:25:54.470Z,37.61
2023-04-04T06:28:24.022Z,37.84
2023-04-04T06:30:52.546Z,37.60
2023-04-04T06:33:30.472Z,37.64
2023-04-04T06:35:59.054Z,37.64
2023-04-04T06:38:31.654Z,37.77
2023-04-04T06:41:04.020Z,37.66
2023-04-04T06:43:32.161Z,37.17
2023-04-04T06:46:00.220Z,37.15
2023-04-04T06:48:28.445Z,37.17
2023-04-04T06:50:57.219Z,37.23
2023-04-04T06:53:27.318Z,36.84
2023-04-04T06:55:55.740Z,37.02
2023-04-04T06:58:28.506Z,36.92
2023-04-04T07:01:00.038Z,37.08
2023-04-04T07:03:29.034Z,36.81
2023-04-04T07:05:57.684Z,36.74
2023-04-04T07:08:27.518Z,36.40
2023-04-04T07:10:59.011Z,36.49
2023-04-04T07:13:29.673Z,36.43
2023-04-04T07:15:58.140Z,36.55
2023-04-04T07:18:26.297Z,36.20
2023-04-04T07:20:54.307Z,35.82
2023-04-04T07:23:24.673Z,35.50
2023-04-04T07:25:53.458Z,35.24
2023-04-04T07:28:22.063Z,35.43
2023-04-04T07:31:01.980Z,35.65
2023-04-04T07:33:32.464Z,35.66
2023-04-04T07:36:03.641Z,35.97
2023-04-04T07:38:34.875Z,36.00
2023-04-04T07:41:04.392Z,35.92
2023-04-04T07:43:34.288Z,35.82
2023-04-04T07:46:04.732Z,35.69
2023-04-04T07:48:32.986Z,35.74
2023-04-04T07:51:05.403Z,36.09
2023-04-04T07:53:34.406Z,36.13
2023-04-04T07:56:06.607Z,35.75
2023-04-04T07:58:37.551Z,35.77
2023-04-04T08:01:05.476Z,36.32
2023-04-04T08:03:35.160Z,36.63
2023-04-04T08:06:03.307Z,36.43
2023-04-04T08:08:32.721Z,36.64
2023-04-04T08:11:03.193Z,37.06
2023-04-04T08:13:32.830Z,36.59
2023-04-04T08:16:01.360Z,36.29
2023-04-04T08:18:30.513Z,36.20
2023-04-04T08:20:59.120Z,36.03
2023-04-04T08:23:27.847Z,36.07
2023-04-04T08:25:56.237Z,36.02
2023-04-04T08:28:24.289Z,35.99
2023-04-04T08:30:54.636Z,35.81
2023-04-04T08:33:37.362Z,36.20
2023-04-04T08:36:16.325Z,36.45
2023-04-04T08:38:47.930Z,36.20
2023-04-04T08:41:16.291Z,36.14
2023-04-04T08:43:54.326Z,36.28
2023-04-04T08:46:23.522Z,36.20
2023-04-04T08:48:53.046Z,36.37
2023-04-04T08:51:21.192Z,36.25
2023-04-04T08:53:53.602Z,35.97
2023-04-04T08:56:21.872Z,35.67
2023-04-04T08:58:50.090Z,35.51
2023-04-04T09:01:18.396Z,35.43
2023-04-04T09:03:48.253Z,35.47
2023-04-04T09:06:16.692Z,35.20
2023-04-04T09:08:45.544Z,35.41
2023-04-04T09:11:14.058Z,35.15
2023-04-04T09:13:42.055Z,34.94
2023-04-04T09:16:10.486Z,35.06
2023-04-04T09:18:39.294Z,34.91
2023-04-04T09:21:14.797Z,35.00
2023-04-04T09:23:43.740Z,35.06
2023-04-04T09:26:13.459Z,34.99
2023-04-04T09:28:44.039Z,34.89
2023-04-04T09:31:11.991Z,35.48
2023-04-04T09:33:40.320Z,36.08
2023-04-04T09:36:11.158Z,35.29
2023-04-04T09:38:45.569Z,34.92
2023-04-04T09:41:14.788Z,34.58
2023-04-04T09:43:45.146Z,34.72
2023-04-04T09:46:13.262Z,34.95
2023-04-04T09:48:44.104Z,34.72
2023-04-04T09:51:12.852Z,34.92
2023-04-04T09:53:44.449Z,34.14
2023-04-04T09:56:12.935Z,34.30
2023-04-04T09:58:52.465Z,34.84
2023-04-04T10:01:28.824Z,34.39
2023-04-04T10:03:58.222Z,33.86
2023-04-04T10:06:27.109Z,33.78
2023-04-04T10:08:56.645Z,34.44
2023-04-04T10:11:34.510Z,34.69
2023-04-04T10:14:06.990Z,33.66
2023-04-04T10:16:37.999Z,33.72
2023-04-04T10:19:09.219Z,33.69
2023-04-04T10:21:43.255Z,33.19
2023-04-04T10:24:11.568Z,33.48
2023-04-04T10:26:39.986Z,33.58
2023-04-04T10:29:10.402Z,32.94
2023-04-04T10:31:41.042Z,32.92
2023-04-04T10:34:18.840Z,32.85
2023-04-04T10:36:54.375Z,32.80
2023-04-04T10:39:41.090Z,33.29
2023-04-04T10:42:09.063Z,33.42
2023-04-04T10:44:39.469Z,33.15
2023-04-04T10:47:19.673Z,33.92
2023-04-04T10:49:48.628Z,33.82
2023-04-04T10:52:24.984Z,33.03
2023-04-04T10:54:55.003Z,32.83
2023-04-04T10:57:23.981Z,32.76
2023-04-04T11:00:04.255Z,32.28
2023-04-04T11:02:51.550Z,32.12
2023-04-04T11:05:42.337Z,31.70
2023-04-04T11:08:14.166Z,31.51
2023-04-04T11:10:47.776Z,31.48
2023-04-04T11:13:26.578Z,31.34
2023-04-04T11:16:17.287Z,31.12
2023-04-04T11:18:50.303Z,30.79
2023-04-04T11:21:20.249Z,31.08
2023-04-04T11:23:51.328Z,31.27
2023-04-04T11:26:28.497Z,31.25
2023-04-04T11:29:00.159Z,31.34
2023-04-04T11:31:33.773Z,31.07
2023-04-04T11:34:15.241Z,31.21
2023-04-04T11:36:45.357Z,31.32
2023-04-04T11:39:24.715Z,31.71
2023-04-04T11:41:55.786Z,31.50
2023-04-04T11:44:29.438Z,31.01
2023-04-04T11:47:02.552Z,30.99
2023-04-04T11:49:38.387Z,31.07
2023-04-04T11:52:11.584Z,31.13
2023-04-04T11:54:40.869Z,31.39
2023-04-04T11:57:19.457Z,31.30
2023-04-04T11:59:48.859Z,31.30
2023-04-04T12:02:20.527Z,31.30
2023-04-04T12:04:49.283Z,31.11
2023-04-04T12:07:21.219Z,31.17
2023-04-04T12:09:49.616Z,31.24
2023-04-04T12:12:17.774Z,31.08
2023-04-04T12:14:50.380Z,31.06
2023-04-04T12:17:19.798Z,30.98
2023-04-04T12:19:47.830Z,30.92
2023-04-04T12:22:16.524Z,30.87
2023-04-04T12:24:45.075Z,31.08
2023-04-04T12:27:13.387Z,31.45
2023-04-04T12:29:43.103Z,31.93
2023-04-04T12:32:13.808Z,32.06
2023-04-04T12:34:45.561Z,31.89
2023-04-04T12:37:19.170Z,31.86
2023-04-04T12:39:52.642Z,31.85
2023-04-04T12:42:24.632Z,31.63
2023-04-04T12:44:53.825Z,31.72
2023-04-04T12:47:24.573Z,31.56
2023-04-04T12:49:56.544Z,31.63
2023-04-04T12:52:30.301Z,31.59
2023-04-04T12:55:08.069Z,31.69
2023-04-04T12:57:39.597Z,31.37
2023-04-04T13:00:09.441Z,31.58
2023-04-04T13:02:38.803Z,31.55
2023-04-04T13:05:08.035Z,31.50
2023-04-04T13:07:44.579Z,31.63
2023-04-04T13:10:15.095Z,31.40
2023-04-04T13:12:58.814Z,31.27
2023-04-04T13:15:49.602Z,31.24
2023-04-04T13:18:22.636Z,31.54
2023-04-04T13:20:52.392Z,31.63
2023-04-04T13:23:21.564Z,32.03
2023-04-04T13:25:50.058Z,31.88
2023-04-04T13:28:18.455Z,32.05
2023-04-04T13:30:49.225Z,32.48
2023-04-04T13:33:18.227Z,32.70
2023-04-04T13:35:46.613Z,32.09
2023-04-04T13:41:03.621Z,38.07
2023-04-04T13:43:35.447Z,36.61
2023-04-04T13:46:03.428Z,36.23
2023-04-04T13:48:32.316Z,36.05
2023-04-04T13:51:01.287Z,35.74
2023-04-04T13:53:29.334Z,34.89
2023-04-04T13:56:17.156Z,34.79
2023-04-04T13:58:46.484Z,34.89
2023-04-04T14:01:14.546Z,34.59
2023-04-04T14:03:43.916Z,34.74
2023-04-04T14:06:12.714Z,34.64
2023-04-04T14:08:40.913Z,34.31
2023-04-04T14:11:14.070Z,33.89
2023-04-04T14:13:43.383Z,33.94
2023-04-04T14:16:12.046Z,33.84
2023-04-04T14:18:41.490Z,33.92
2023-04-04T14:21:13.867Z,34.07
2023-04-04T14:23:42.983Z,33.78
2023-04-04T14:26:14.302Z,33.90
2023-04-04T14:28:42.714Z,33.70
2023-04-04T14:31:10.889Z,33.61
2023-04-04T14:33:39.424Z,33.58
2023-04-04T14:36:08.544Z,33.43
2023-04-04T14:38:36.978Z,33.36
2023-04-04T14:41:05.181Z,33.33
2023-04-04T14:43:35.454Z,33.64
2023-04-04T14:46:05.273Z,33.39
2023-04-04T14:48:34.785Z,33.29
2023-04-04T14:51:05.719Z,33.47
2023-04-04T14:53:33.759Z,34.01
2023-04-04T14:56:01.891Z,33.82
2023-04-04T14:58:33.205Z,33.95
2023-04-04T15:01:01.560Z,34.18
2023-04-04T15:03:30.711Z,34.07
2023-04-04T15:05:58.712Z,33.92
2023-04-04T15:08:28.495Z,33.56
2023-04-04T15:10:56.425Z,33.64
2023-04-04T15:13:31.395Z,33.96
2023-04-04T15:16:01.666Z,34.21
2023-04-04T15:18:30.542Z,33.96
2023-04-04T15:21:00.306Z,34.28
2023-04-04T15:23:28.390Z,34.92
2023-04-04T15:25:56.525Z,34.71
2023-04-04T15:28:27.258Z,34.41
2023-04-04T15:30:56.619Z,34.84
2023-04-04T15:33:24.864Z,34.75
2023-04-04T15:35:53.253Z,35.15
2023-04-04T15:38:21.611Z,35.15
2023-04-04T15:40:50.508Z,34.97
2023-04-04T15:43:19.900Z,34.68
2023-04-04T15:45:47.963Z,33.92
2023-04-04T15:48:16.604Z,33.94
2023-04-04T15:50:44.810Z,34.03
2023-04-04T15:53:13.636Z,33.99
2023-04-04T15:55:42.853Z,33.88
2023-04-04T15:58:11.228Z,34.00
2023-04-04T16:00:39.569Z,34.25
2023-04-04T16:03:13.997Z,33.98
2023-04-04T16:05:42.384Z,33.86
2023-04-04T16:08:16.302Z,34.05
2023-04-04T16:10:44.961Z,34.16
2023-04-04T16:13:13.451Z,34.09
2023-04-04T16:15:46.803Z,34.90
2023-04-04T16:18:15.711Z,34.90
2023-04-04T16:20:44.452Z,34.28
2023-04-04T16:23:18.454Z,34.27
2023-04-04T16:25:47.334Z,34.54
2023-04-04T16:28:15.598Z,35.07
2023-04-04T16:30:44.085Z,35.33
2023-04-04T16:33:13.886Z,35.42
2023-04-04T16:35:42.381Z,34.85
2023-04-04T16:38:12.696Z,34.76
2023-04-04T16:40:41.498Z,34.90
2023-04-04T16:43:10.178Z,35.04
2023-04-04T16:45:39.434Z,34.62
2023-04-04T16:48:07.825Z,34.57
2023-04-04T16:50:40.704Z,34.43
2023-04-04T16:53:09.954Z,34.84
2023-04-04T16:55:38.109Z,34.95
2023-04-04T16:58:06.327Z,35.51
2023-04-04T17:00:35.531Z,35.91
2023-04-04T17:03:05.109Z,36.07
2023-04-04T17:05:34.046Z,36.13
2023-04-04T17:08:02.046Z,35.34
2023-04-04T17:10:31.525Z,35.40
2023-04-04T17:12:59.710Z,35.30
2023-04-04T17:15:28.513Z,35.84
2023-04-04T17:17:57.227Z,35.85
2023-04-04T17:20:28.376Z,36.05
2023-04-04T17:22:57.935Z,35.88
2023-04-04T17:25:29.195Z,35.76
2023-04-04T17:27:57.778Z,35.76
2023-04-04T17:30:26.591Z,35.68
2023-04-04T17:32:56.369Z,35.51
2023-04-04T17:35:25.350Z,35.19
2023-04-04T17:37:54.066Z,35.65
2023-04-04T17:40:23.691Z,35.81
2023-04-04T17:42:52.263Z,35.82
2023-04-04T17:45:20.580Z,35.71
2023-04-04T17:47:48.836Z,35.68
2023-04-04T17:50:17.811Z,35.56
2023-04-04T17:52:46.498Z,36.14
2023-04-04T17:55:22.545Z,36.53
2023-04-04T17:57:51.097Z,36.45
2023-04-04T18:00:20.091Z,36.02
2023-04-04T18:02:48.857Z,36.26
2023-04-04T18:05:17.093Z,36.77
2023-04-04T18:07:45.464Z,37.72
2023-04-04T18:10:13.892Z,37.99
2023-04-04T18:12:44.409Z,37.53
2023-04-04T18:15:12.845Z,37.42
2023-04-04T18:17:42.189Z,37.45
2023-04-04T18:20:14.312Z,37.37
2023-04-04T18:22:48.336Z,37.01
2023-04-04T18:25:17.828Z,36.27
2023-04-04T18:27:45.991Z,36.23
2023-04-04T18:30:14.115Z,35.86
2023-04-04T18:32:42.605Z,35.87
2023-04-04T18:35:10.695Z,35.75
2023-04-04T18:37:38.892Z,35.69
2023-04-04T18:40:08.431Z,35.98
2023-04-04T18:42:37.591Z,36.03
2023-04-04T18:45:08.128Z,35.97
2023-04-04T18:47:36.970Z,35.74
2023-04-04T18:50:07.013Z,35.62
2023-04-04T18:52:36.532Z,36.02
2023-04-04T18:55:08.990Z,36.09
2023-04-04T18:57:38.723Z,36.41
2023-04-04T19:00:08.230Z,36.38
2023-04-04T19:02:38.486Z,36.51
2023-04-04T19:05:08.940Z,36.74
2023-04-04T19:07:37.574Z,37.10
2023-04-04T19:10:08.150Z,37.11
2023-04-04T19:12:41.079Z,37.40
2023-04-04T19:15:09.354Z,37.37
2023-04-04T19:17:39.109Z,37.47
2023-04-04T19:20:08.477Z,37.51
2023-04-04T19:22:36.461Z,37.49
2023-04-04T19:25:04.967Z,37.71
2023-04-04T19:27:33.032Z,37.11
2023-04-04T19:30:05.252Z,36.97
2023-04-04T19:32:42.924Z,37.08
2023-04-04T19:35:42.160Z,37.24
2023-04-04T19:38:11.067Z,37.30
2023-04-04T19:40:49.280Z,37.29
2023-04-04T19:43:22.741Z,37.18
2023-04-04T19:45:52.353Z,37.64
2023-04-04T19:48:43.754Z,37.93
2023-04-04T19:51:17.647Z,37.76
2023-04-04T19:53:47.426Z,37.70
2023-04-04T19:56:16.693Z,37.38
2023-04-04T19:58:45.660Z,37.46
2023-04-04T20:01:19.320Z,37.20
2023-04-04T20:03:47.507Z,37.12
2023-04-04T20:06:28.402Z,37.04
2023-04-04T20:09:02.062Z,37.13
2023-04-04T20:11:35.052Z,36.98
2023-04-04T20:14:07.317Z,36.83
2023-04-04T20:16:35.718Z,36.84
2023-04-04T20:19:06.706Z,37.02
2023-04-04T20:21:36.091Z,37.42
2023-04-04T20:24:08.348Z,37.27
2023-04-04T20:26:38.185Z,36.78
2023-04-04T20:29:08.367Z,36.72
2023-04-04T20:31:54.078Z,36.51
2023-04-04T20:34:38.760Z,36.74
2023-04-04T20:37:12.601Z,37.04
2023-04-04T20:39:46.834Z,37.33
2023-04-04T20:42:30.623Z,37.24
2023-04-04T20:45:08.232Z,37.11
2023-04-04T20:47:46.972Z,37.17
2023-04-04T20:50:18.776Z,37.23
2023-04-04T20:52:50.572Z,37.12
2023-04-04T20:55:19.430Z,37.23
2023-04-04T20:57:48.713Z,37.56
2023-04-04T21:00:28.697Z,37.59
2023-04-04T21:03:07.425Z,37.45
2023-04-04T21:05:38.564Z,37.62
2023-04-04T21:08:29.613Z,37.39
2023-04-04T21:10:57.787Z,37.40
2023-04-04T21:13:31.258Z,37.39
2023-04-04T21:16:00.808Z,37.26
2023-04-04T21:18:30.770Z,37.35
2023-04-04T21:21:13.919Z,37.29
2023-04-04T21:23:50.001Z,37.56
2023-04-04T21:26:32.025Z,37.34
2023-04-04T21:29:07.891Z,37.27
2023-04-04T21:31:38.572Z,37.17
2023-04-04T21:34:10.666Z,37.09
2023-04-04T21:36:41.408Z,37.09
2023-04-04T21:39:23.888Z,37.20
2023-04-04T21:41:56.577Z,37.78
2023-04-04T21:44:25.520Z,38.48
2023-04-04T21:46:56.505Z,38.65
2023-04-04T21:49:24.778Z,38.69
2023-04-04T21:51:53.263Z,38.35
2023-04-04T21:54:21.729Z,38.27
2023-04-04T21:56:49.706Z,38.07
2023-04-04T21:59:18.027Z,38.27
2023-04-04T22:01:46.209Z,38.18
2023-04-04T22:04:15.463Z,38.29
2023-04-04T22:06:44.129Z,37.62
2023-04-04T22:09:12.115Z,38.12
2023-04-04T22:11:44.445Z,38.25
2023-04-04T22:14:17.371Z,38.25
2023-04-04T22:16:46.018Z,38.39
2023-04-04T22:19:14.284Z,38.31
2023-04-04T22:21:47.297Z,37.88
2023-04-04T22:24:18.655Z,37.59
2023-04-04T22:26:47.360Z,37.63
2023-04-04T22:29:15.498Z,37.64
2023-04-04T22:31:45.734Z,37.58
2023-04-04T22:34:15.226Z,37.15
2023-04-04T22:36:45.889Z,37.00
2023-04-04T22:39:16.316Z,37.16
2023-04-04T22:41:44.993Z,37.21
2023-04-04T22:44:13.410Z,37.74
2023-04-04T22:46:41.656Z,37.70
2023-04-04T22:49:10.017Z,37.38
2023-04-04T22:51:45.724Z,37.53
2023-04-04T22:54:15.929Z,37.51
2023-04-04T22:56:44.609Z,37.66
2023-04-04T22:59:17.860Z,37.92
2023-04-04T23:01:47.543Z,37.48
2023-04-04T23:04:16.756Z,37.46
2023-04-04T23:06:46.416Z,37.70
2023-04-04T23:09:14.757Z,37.46
2023-04-04T23:11:42.890Z,37.48
2023-04-04T23:14:14.854Z,37.59
2023-04-04T23:16:44.207Z,37.79
2023-04-04T23:19:12.756Z,37.67
2023-04-04T23:21:49.397Z,38.09
2023-04-04T23:24:17.862Z,37.74
2023-04-04T23:26:45.905Z,37.43
2023-04-04T23:29:14.581Z,37.58
2023-04-04T23:31:42.948Z,38.14
2023-04-04T23:34:11.351Z,37.78
2023-04-04T23:36:39.333Z,38.10
2023-04-04T23:39:11.703Z,38.24
2023-04-04T23:41:40.661Z,38.41
2023-04-04T23:44:08.661Z,38.53
2023-04-04T23:46:37.701Z,38.75
2023-04-04T23:49:06.170Z,38.97
2023-04-04T23:51:39.917Z,38.74
2023-04-04T23:54:10.611Z,38.88
2023-04-04T23:56:38.766Z,38.84
2023-04-04T23:59:07.386Z,38.95
